createdAt,value
2018-12-16T00:01:40.184Z,1.11
2018-12-16T00:04:09.299Z,1.12
2018-12-16T00:06:38.599Z,1.17
2018-12-16T00:09:07.361Z,1.17
2018-12-16T00:11:36.147Z,1.17
2018-12-16T00:14:05.318Z,1.18
2018-12-16T00:16:34.730Z,1.19
2018-12-16T00:19:03.548Z,1.19
2018-12-16T00:21:32.324Z,1.19
2018-12-16T00:24:01.174Z,1.22
2018-12-16T00:26:40.967Z,1.23
2018-12-16T00:29:09.827Z,1.24
2018-12-16T00:31:38.620Z,1.26
2018-12-16T00:34:07.406Z,1.25
2018-12-16T00:36:36.226Z,1.24
2018-12-16T00:39:05.823Z,1.17
2018-12-16T00:41:34.634Z,0.97
2018-12-16T00:44:03.434Z,0.85
2018-12-16T00:46:32.288Z,0.77
2018-12-16T00:49:01.094Z,0.71
2018-12-16T00:51:29.919Z,0.54
2018-12-16T00:53:58.730Z,0.49
2018-12-16T00:56:27.523Z,0.50
2018-12-16T00:58:56.310Z,0.52
2018-12-16T01:01:25.112Z,0.53
2018-12-16T01:03:53.919Z,0.46
2018-12-16T01:06:22.779Z,0.45
2018-12-16T01:08:51.583Z,0.50
2018-12-16T01:11:20.385Z,0.44
2018-12-16T01:13:50.069Z,0.47
2018-12-16T01:16:18.862Z,0.45
2018-12-16T01:18:47.659Z,0.42
2018-12-16T01:21:16.436Z,0.43
2018-12-16T01:23:45.226Z,0.42
2018-12-16T01:26:14.026Z,0.36
2018-12-16T01:28:42.839Z,0.31
2018-12-16T01:31:11.671Z,0.31
2018-12-16T01:33:40.472Z,0.34
2018-12-16T01:36:09.245Z,0.32
2018-12-16T01:38:38.035Z,0.31
2018-12-16T01:41:06.843Z,0.31
2018-12-16T01:43:35.625Z,0.33
2018-12-16T01:46:04.411Z,0.39
2018-12-16T01:48:33.212Z,0.45
2018-12-16T01:51:01.992Z,0.40
2018-12-16T01:53:31.678Z,0.39
2018-12-16T01:56:00.479Z,0.40
2018-12-16T01:58:29.384Z,0.38
2018-12-16T02:00:58.151Z,0.39
2018-12-16T02:03:26.949Z,0.35
2018-12-16T02:05:55.763Z,0.36
2018-12-16T02:08:26.160Z,0.36
2018-12-16T02:10:53.367Z,0.36
2018-12-16T02:13:22.227Z,0.35
2018-12-16T02:15:51.035Z,0.24
2018-12-16T02:18:19.858Z,0.22
2018-12-16T02:20:48.659Z,0.24
2018-12-16T02:23:17.465Z,0.25
2018-12-16T02:25:46.258Z,0.27
2018-12-16T02:28:15.168Z,0.31
2018-12-16T02:30:43.993Z,0.33
2018-12-16T02:33:12.793Z,0.33
2018-12-16T02:35:41.573Z,0.30
2018-12-16T02:38:10.440Z,0.30
2018-12-16T02:40:39.268Z,0.28
2018-12-16T02:43:08.118Z,0.32
2018-12-16T02:45:37.402Z,0.36
2018-12-16T02:48:06.206Z,0.41
2018-12-16T02:50:35.008Z,0.37
2018-12-16T02:53:04.805Z,0.42
2018-12-16T02:55:32.892Z,0.47
2018-12-16T02:58:01.688Z,0.46
2018-12-16T03:00:30.994Z,0.47
2018-12-16T03:03:00.770Z,0.48
2018-12-16T03:05:30.245Z,0.45
2018-12-16T03:07:59.016Z,0.46
2018-12-16T03:10:27.815Z,0.45
2018-12-16T03:12:56.677Z,0.45
2018-12-16T03:15:25.536Z,0.38
2018-12-16T03:17:54.471Z,0.33
2018-12-16T03:20:23.368Z,0.29
2018-12-16T03:22:52.159Z,0.29
2018-12-16T03:25:20.963Z,0.27
2018-12-16T03:27:49.760Z,0.29
2018-12-16T03:30:18.570Z,0.28
2018-12-16T03:32:47.348Z,0.29
2018-12-16T03:35:16.138Z,0.33
2018-12-16T03:37:45.718Z,0.32
2018-12-16T03:40:14.515Z,0.26
2018-12-16T03:42:43.628Z,0.27
2018-12-16T03:45:12.510Z,0.32
2018-12-16T03:47:41.358Z,0.32
2018-12-16T03:50:10.316Z,0.38
2018-12-16T03:52:39.106Z,0.40
2018-12-16T03:55:08.038Z,0.39
2018-12-16T03:57:36.821Z,0.37
2018-12-16T04:00:06.879Z,0.40
2018-12-16T04:02:35.691Z,0.41
2018-12-16T04:05:04.564Z,0.45
2018-12-16T04:07:33.680Z,0.46
2018-12-16T04:10:02.471Z,0.52
2018-12-16T04:12:31.928Z,0.50
2018-12-16T04:15:00.792Z,0.56
2018-12-16T04:17:30.284Z,0.53
2018-12-16T04:19:59.075Z,0.52
2018-12-16T04:22:27.943Z,0.49
2018-12-16T04:24:56.738Z,0.47
2018-12-16T04:27:25.666Z,0.47
2018-12-16T04:29:54.531Z,0.51
2018-12-16T04:32:23.336Z,0.51
2018-12-16T04:34:52.130Z,0.51
2018-12-16T04:37:20.964Z,0.55
2018-12-16T04:39:49.769Z,0.57
2018-12-16T04:42:18.567Z,0.58
2018-12-16T04:44:47.429Z,0.60
2018-12-16T04:47:16.325Z,0.63
2018-12-16T04:49:45.126Z,0.62
2018-12-16T04:52:13.938Z,0.55
2018-12-16T04:54:42.835Z,0.50
2018-12-16T04:57:11.620Z,0.52
2018-12-16T04:59:40.435Z,0.54
2018-12-16T05:02:09.262Z,0.60
2018-12-16T05:04:38.059Z,0.63
2018-12-16T05:07:06.843Z,0.63
2018-12-16T05:09:35.656Z,0.59
2018-12-16T05:12:04.456Z,0.61
2018-12-16T05:14:33.293Z,0.64
2018-12-16T05:17:02.099Z,0.64
2018-12-16T05:19:30.878Z,0.69
2018-12-16T05:21:59.788Z,0.69
2018-12-16T05:24:28.599Z,0.70
2018-12-16T05:26:57.715Z,0.74
2018-12-16T05:29:26.508Z,0.73
2018-12-16T05:31:55.313Z,0.76
2018-12-16T05:34:24.099Z,0.76
2018-12-16T05:36:52.915Z,0.76
2018-12-16T05:39:21.716Z,0.74
2018-12-16T05:41:50.532Z,0.74
2018-12-16T05:44:19.328Z,0.78
2018-12-16T05:46:49.080Z,0.79
2018-12-16T05:49:18.128Z,0.80
2018-12-16T05:51:46.992Z,0.84
2018-12-16T05:54:15.901Z,0.86
2018-12-16T05:56:44.703Z,0.86
2018-12-16T05:59:13.507Z,0.88
2018-12-16T06:01:42.350Z,0.90
2018-12-16T06:04:11.130Z,0.92
2018-12-16T06:06:39.983Z,0.95
2018-12-16T06:09:08.769Z,0.97
2018-12-16T06:11:37.644Z,0.98
2018-12-16T06:14:06.446Z,0.99
2018-12-16T06:16:35.806Z,0.99
2018-12-16T06:19:04.046Z,1.00
2018-12-16T06:21:33.237Z,0.96
2018-12-16T06:24:02.027Z,0.96
2018-12-16T06:26:30.895Z,0.98
2018-12-16T06:28:59.750Z,0.98
2018-12-16T06:31:28.542Z,0.96
2018-12-16T06:33:57.399Z,0.97
2018-12-16T06:36:26.178Z,0.97
2018-12-16T06:38:55.032Z,0.98
2018-12-16T06:41:23.836Z,0.95
2018-12-16T06:43:52.655Z,0.97
2018-12-16T06:46:21.947Z,1.00
2018-12-16T06:48:50.779Z,1.06
2018-12-16T06:51:19.582Z,1.08
2018-12-16T06:53:48.375Z,1.11
2018-12-16T06:56:17.175Z,1.14
2018-12-16T06:58:46.019Z,1.11
2018-12-16T07:01:16.024Z,1.11
2018-12-16T07:03:43.648Z,1.13
2018-12-16T07:06:12.514Z,1.16
2018-12-16T07:08:42.608Z,1.20
2018-12-16T07:11:11.426Z,1.20
2018-12-16T07:13:40.242Z,1.24
2018-12-16T07:16:09.049Z,1.26
2018-12-16T07:18:37.848Z,1.19
2018-12-16T07:21:06.660Z,1.13
2018-12-16T07:23:35.490Z,1.15
2018-12-16T07:26:04.313Z,1.17
2018-12-16T07:28:33.621Z,1.20
2018-12-16T07:31:02.448Z,1.18
2018-12-16T07:33:31.484Z,1.21
2018-12-16T07:36:00.345Z,1.25
2018-12-16T07:38:29.848Z,1.26
2018-12-16T07:40:58.651Z,1.29
2018-12-16T07:43:27.473Z,1.31
2018-12-16T07:45:56.244Z,1.31
2018-12-16T07:48:25.065Z,1.31
2018-12-16T07:50:53.886Z,1.31
2018-12-16T07:53:22.786Z,1.33
2018-12-16T07:55:51.608Z,1.34
2018-12-16T07:58:20.454Z,1.36
2018-12-16T08:00:49.278Z,1.31
2018-12-16T08:03:18.097Z,1.28
2018-12-16T08:05:47.538Z,1.32
2018-12-16T08:08:16.317Z,1.39
2018-12-16T08:10:45.131Z,1.46
2018-12-16T08:13:16.518Z,1.48
2018-12-16T08:15:45.885Z,1.47
2018-12-16T08:18:14.677Z,1.43
2018-12-16T08:20:43.526Z,1.46
2018-12-16T08:23:12.508Z,1.48
2018-12-16T08:25:41.303Z,1.53
2018-12-16T08:28:10.099Z,1.55
2018-12-16T08:30:38.928Z,1.57
2018-12-16T08:33:07.974Z,1.55
2018-12-16T08:35:36.726Z,1.58
2018-12-16T08:38:05.511Z,1.59
2018-12-16T08:40:34.357Z,1.61
2018-12-16T08:43:03.639Z,1.64
2018-12-16T08:45:33.196Z,1.67
2018-12-16T08:48:01.990Z,1.65
2018-12-16T08:50:33.483Z,1.65
2018-12-16T08:53:02.580Z,1.67
2018-12-16T08:55:32.605Z,1.70
2018-12-16T08:58:01.477Z,1.68
2018-12-16T09:00:30.880Z,1.67
2018-12-16T09:02:59.731Z,1.68
2018-12-16T09:05:30.226Z,1.71
2018-12-16T09:07:59.486Z,1.68
2018-12-16T09:10:34.125Z,1.73
2018-12-16T09:12:57.150Z,1.70
2018-12-16T09:15:25.947Z,1.72
2018-12-16T09:17:54.779Z,1.77
2018-12-16T09:20:23.624Z,1.84
2018-12-16T09:22:52.768Z,1.84
2018-12-16T09:25:21.619Z,1.90
2018-12-16T09:27:50.411Z,1.93
2018-12-16T09:30:19.351Z,1.94
2018-12-16T09:32:48.226Z,1.98
2018-12-16T09:35:17.019Z,1.99
2018-12-16T09:37:45.929Z,2.05
2018-12-16T09:40:14.763Z,2.07
2018-12-16T09:42:43.743Z,2.01
2018-12-16T09:45:12.727Z,2.06
2018-12-16T09:47:41.572Z,2.07
2018-12-16T09:50:11.182Z,2.06
2018-12-16T09:52:40.238Z,2.04
2018-12-16T09:55:09.057Z,2.02
2018-12-16T09:57:37.854Z,2.03
2018-12-16T10:00:07.941Z,2.03
2018-12-16T10:02:37.514Z,2.09
2018-12-16T10:05:07.487Z,2.10
2018-12-16T10:07:36.991Z,2.12
2018-12-16T10:10:09.015Z,2.11
2018-12-16T10:12:37.931Z,2.08
2018-12-16T10:15:06.983Z,2.11
2018-12-16T10:17:36.360Z,2.19
2018-12-16T10:20:06.141Z,2.32
2018-12-16T10:22:35.054Z,2.38
2018-12-16T10:25:04.138Z,2.41
2018-12-16T10:27:33.218Z,2.44
2018-12-16T10:30:02.122Z,2.45
2018-12-16T10:32:32.479Z,2.49
2018-12-16T10:35:00.084Z,2.50
2018-12-16T10:37:29.811Z,2.54
2018-12-16T10:39:58.832Z,2.56
2018-12-16T10:42:27.750Z,2.61
2018-12-16T10:44:56.556Z,2.69
2018-12-16T10:47:25.628Z,2.75
2018-12-16T10:49:55.080Z,2.72
2018-12-16T10:52:23.911Z,2.69
2018-12-16T10:54:58.411Z,2.72
2018-12-16T10:57:21.615Z,2.75
2018-12-16T10:59:50.443Z,2.78
2018-12-16T11:02:20.246Z,2.82
2018-12-16T11:04:49.076Z,2.85
2018-12-16T11:07:17.979Z,2.85
2018-12-16T11:09:46.780Z,2.85
2018-12-16T11:12:15.569Z,2.85
2018-12-16T11:14:44.369Z,2.91
2018-12-16T11:17:13.172Z,2.95
2018-12-16T11:19:42.005Z,2.98
2018-12-16T11:22:10.891Z,2.93
2018-12-16T11:24:39.756Z,2.91
2018-12-16T11:27:08.535Z,2.87
2018-12-16T11:29:37.340Z,2.81
2018-12-16T11:32:06.137Z,2.83
2018-12-16T11:34:34.934Z,2.86
2018-12-16T11:37:03.821Z,2.90
2018-12-16T11:39:32.698Z,2.94
2018-12-16T11:42:01.555Z,2.99
2018-12-16T11:44:30.355Z,3.03
2018-12-16T11:46:59.230Z,3.02
2018-12-16T11:49:28.046Z,3.00
2018-12-16T11:51:57.157Z,3.04
2018-12-16T11:54:25.947Z,3.08
2018-12-16T11:56:54.747Z,3.12
2018-12-16T11:59:23.568Z,3.14
2018-12-16T12:01:52.362Z,3.19
2018-12-16T12:04:21.183Z,3.24
2018-12-16T12:06:50.001Z,3.22
2018-12-16T12:09:18.923Z,3.28
2018-12-16T12:11:47.899Z,3.34
2018-12-16T12:14:16.871Z,3.43
2018-12-16T12:16:45.634Z,3.46
2018-12-16T12:19:14.420Z,3.52
2018-12-16T12:21:43.275Z,3.60
2018-12-16T12:24:12.103Z,3.66
2018-12-16T12:26:40.905Z,3.70
2018-12-16T12:29:09.707Z,3.72
2018-12-16T12:31:38.636Z,3.78
2018-12-16T12:34:07.752Z,3.79
2018-12-16T12:36:36.565Z,3.77
2018-12-16T12:39:05.822Z,3.73
2018-12-16T12:41:34.618Z,3.75
2018-12-16T12:44:03.471Z,3.81
2018-12-16T12:46:32.283Z,3.85
2018-12-16T12:49:01.076Z,3.87
2018-12-16T12:51:30.219Z,3.89
2018-12-16T12:53:59.071Z,3.90
2018-12-16T12:56:27.899Z,3.90
2018-12-16T12:58:56.746Z,3.91
2018-12-16T13:01:25.680Z,3.96
2018-12-16T13:03:54.488Z,4.01
2018-12-16T13:06:23.287Z,4.03
2018-12-16T13:08:52.163Z,4.09
2018-12-16T13:11:21.028Z,4.12
2018-12-16T13:13:50.734Z,4.10
2018-12-16T13:16:19.543Z,4.13
2018-12-16T13:18:48.336Z,4.13
2018-12-16T13:21:17.216Z,4.14
2018-12-16T13:23:46.000Z,4.15
2018-12-16T13:26:14.788Z,4.16
2018-12-16T13:28:43.661Z,4.18
2018-12-16T13:31:12.444Z,4.19
2018-12-16T13:33:41.224Z,4.21
2018-12-16T13:36:11.006Z,4.22
2018-12-16T13:38:39.825Z,4.24
2018-12-16T13:41:08.631Z,4.23
2018-12-16T13:43:37.732Z,4.22
2018-12-16T13:46:06.535Z,4.23
2018-12-16T13:48:35.624Z,4.24
2018-12-16T13:51:04.415Z,4.25
2018-12-16T13:53:33.257Z,4.24
2018-12-16T13:56:02.077Z,4.23
2018-12-16T13:58:30.839Z,4.25
2018-12-16T14:00:59.649Z,4.27
2018-12-16T14:03:28.450Z,4.26
2018-12-16T14:05:57.240Z,4.25
2018-12-16T14:08:26.333Z,4.24
2018-12-16T14:10:55.185Z,4.24
2018-12-16T14:13:24.099Z,4.23
2018-12-16T14:15:52.983Z,4.25
2018-12-16T14:18:21.835Z,4.25
2018-12-16T14:20:50.630Z,4.27
2018-12-16T14:23:19.963Z,4.27
2018-12-16T14:25:48.754Z,4.30
2018-12-16T14:28:17.584Z,4.30
2018-12-16T14:30:46.424Z,4.30
2018-12-16T14:33:15.258Z,4.30
2018-12-16T14:35:44.995Z,4.27
2018-12-16T14:38:12.915Z,4.24
2018-12-16T14:40:41.722Z,4.25
2018-12-16T14:43:10.555Z,4.23
2018-12-16T14:45:39.402Z,4.21
2018-12-16T14:48:08.320Z,4.21
2018-12-16T14:50:37.104Z,4.22
2018-12-16T14:53:05.908Z,4.21
2018-12-16T14:55:34.756Z,4.21
2018-12-16T14:58:03.558Z,4.20
2018-12-16T15:00:32.359Z,4.22
2018-12-16T15:03:01.164Z,4.23
2018-12-16T15:05:30.000Z,4.26
2018-12-16T15:07:58.778Z,4.27
2018-12-16T15:10:27.999Z,4.31
2018-12-16T15:12:56.856Z,4.29
2018-12-16T15:15:25.888Z,4.29
2018-12-16T15:17:54.668Z,4.27
2018-12-16T15:20:23.525Z,4.23
2018-12-16T15:22:52.426Z,4.24
2018-12-16T15:25:21.228Z,4.26
2018-12-16T15:27:50.016Z,4.26
2018-12-16T15:30:18.818Z,4.25
2018-12-16T15:32:47.611Z,4.23
2018-12-16T15:35:16.450Z,4.21
2018-12-16T15:37:45.333Z,4.21
2018-12-16T15:40:14.130Z,4.23
2018-12-16T15:42:42.918Z,4.21
2018-12-16T15:45:11.724Z,4.24
2018-12-16T15:47:40.615Z,4.25
2018-12-16T15:50:09.850Z,4.22
2018-12-16T15:52:38.734Z,4.20
2018-12-16T15:55:09.779Z,4.21
2018-12-16T15:57:38.562Z,4.22
2018-12-16T16:00:07.662Z,4.24
2018-12-16T16:02:36.495Z,4.41
2018-12-16T16:05:05.521Z,4.30
2018-12-16T16:07:34.404Z,4.37
2018-12-16T16:10:03.609Z,4.30
2018-12-16T16:12:32.467Z,4.27
2018-12-16T16:15:01.300Z,4.29
2018-12-16T16:17:30.193Z,4.47
2018-12-16T16:19:59.008Z,4.37
2018-12-16T16:22:27.952Z,4.36
2018-12-16T16:24:56.937Z,4.36
2018-12-16T16:27:25.718Z,4.34
2018-12-16T16:29:54.500Z,4.33
2018-12-16T16:32:23.353Z,4.34
2018-12-16T16:34:52.275Z,4.31
2018-12-16T16:37:21.153Z,4.34
2018-12-16T16:39:50.478Z,4.35
2018-12-16T16:42:19.315Z,4.38
2018-12-16T16:44:48.126Z,4.38
2018-12-16T16:47:17.106Z,4.39
2018-12-16T16:49:46.063Z,4.42
2018-12-16T16:52:14.859Z,4.44
2018-12-16T16:54:43.687Z,4.43
2018-12-16T16:57:12.488Z,4.44
2018-12-16T16:59:42.163Z,4.40
2018-12-16T17:02:10.959Z,4.41
2018-12-16T17:04:40.887Z,4.42
2018-12-16T17:07:09.695Z,4.42
2018-12-16T17:09:39.083Z,4.44
2018-12-16T17:12:07.881Z,4.46
2018-12-16T17:14:37.380Z,4.46
2018-12-16T17:17:06.227Z,4.47
2018-12-16T17:19:35.011Z,4.46
2018-12-16T17:22:03.852Z,4.54
2018-12-16T17:24:32.627Z,4.49
2018-12-16T17:27:01.426Z,4.50
2018-12-16T17:29:30.328Z,4.50
2018-12-16T17:31:59.140Z,4.51
2018-12-16T17:34:27.935Z,4.52
2018-12-16T17:36:56.734Z,4.53
2018-12-16T17:39:26.201Z,4.54
2018-12-16T17:41:54.989Z,4.57
2018-12-16T17:44:23.840Z,4.59
2018-12-16T17:46:53.959Z,4.62
2018-12-16T17:49:22.878Z,4.62
2018-12-16T17:51:51.827Z,4.62
2018-12-16T17:54:20.674Z,4.61
2018-12-16T17:56:49.480Z,4.63
2018-12-16T17:59:18.336Z,4.62
2018-12-16T18:01:47.138Z,4.61
2018-12-16T18:04:16.099Z,4.60
2018-12-16T18:06:44.903Z,4.61
2018-12-16T18:09:13.808Z,4.62
2018-12-16T18:11:43.085Z,4.61
2018-12-16T18:14:11.902Z,4.61
2018-12-16T18:16:40.698Z,4.62
2018-12-16T18:19:09.479Z,4.62
2018-12-16T18:21:38.330Z,4.63
2018-12-16T18:24:07.123Z,4.63
2018-12-16T18:26:35.926Z,4.62
2018-12-16T18:29:04.719Z,4.65
2018-12-16T18:31:33.619Z,4.66
2018-12-16T18:34:02.505Z,4.65
2018-12-16T18:36:31.273Z,4.68
2018-12-16T18:39:00.155Z,4.69
2018-12-16T18:41:28.945Z,4.71
2018-12-16T18:43:57.762Z,4.65
2018-12-16T18:46:26.511Z,4.66
2018-12-16T18:48:55.315Z,4.65
2018-12-16T18:51:24.113Z,4.65
2018-12-16T18:53:53.102Z,4.67
2018-12-16T18:56:21.986Z,4.65
2018-12-16T18:58:50.778Z,4.66
2018-12-16T19:01:19.585Z,4.66
2018-12-16T19:03:48.380Z,4.66
2018-12-16T19:06:20.194Z,4.65
2018-12-16T19:08:48.982Z,4.65
2018-12-16T19:11:17.765Z,4.64
2018-12-16T19:13:46.593Z,4.66
2018-12-16T19:16:15.375Z,4.66
2018-12-16T19:18:44.181Z,4.66
2018-12-16T19:21:12.955Z,4.64
2018-12-16T19:23:41.807Z,4.62
2018-12-16T19:26:10.588Z,4.63
2018-12-16T19:28:39.362Z,4.63
2018-12-16T19:31:08.165Z,4.64
2018-12-16T19:33:37.103Z,4.64
2018-12-16T19:36:05.893Z,4.64
2018-12-16T19:38:34.692Z,4.63
2018-12-16T19:41:03.467Z,4.61
2018-12-16T19:43:32.296Z,4.63
2018-12-16T19:46:01.080Z,4.64
2018-12-16T19:48:29.899Z,4.67
2018-12-16T19:50:58.739Z,4.67
2018-12-16T19:53:27.531Z,4.66
2018-12-16T19:55:56.394Z,4.65
2018-12-16T19:58:25.190Z,4.67
2018-12-16T20:00:54.975Z,4.68
2018-12-16T20:03:23.811Z,4.69
2018-12-16T20:05:58.005Z,4.69
2018-12-16T20:08:26.790Z,4.70
2018-12-16T20:10:55.597Z,4.69
2018-12-16T20:13:24.383Z,4.69
2018-12-16T20:15:53.252Z,4.68
2018-12-16T20:18:22.123Z,4.68
2018-12-16T20:20:50.919Z,4.67
2018-12-16T20:23:19.720Z,4.67
2018-12-16T20:25:48.500Z,4.67
2018-12-16T20:28:17.282Z,4.67
2018-12-16T20:30:46.077Z,4.66
2018-12-16T20:33:14.884Z,4.64
2018-12-16T20:35:43.671Z,4.61
2018-12-16T20:38:13.030Z,4.61
2018-12-16T20:40:41.835Z,4.60
2018-12-16T20:43:10.623Z,4.57
2018-12-16T20:45:39.414Z,4.57
2018-12-16T20:48:08.259Z,4.58
2018-12-16T20:50:37.042Z,4.61
2018-12-16T20:53:05.869Z,4.61
2018-12-16T20:55:34.671Z,4.62
2018-12-16T20:58:03.454Z,4.58
2018-12-16T21:00:32.419Z,4.64
2018-12-16T21:03:01.931Z,4.64
2018-12-16T21:05:30.801Z,4.66
2018-12-16T21:07:59.605Z,4.57
2018-12-16T21:10:28.471Z,4.52
2018-12-16T21:13:03.788Z,4.52
2018-12-16T21:15:38.003Z,4.51
2018-12-16T21:18:12.169Z,4.48
2018-12-16T21:20:40.958Z,4.48
2018-12-16T21:23:09.738Z,4.49
2018-12-16T21:25:38.569Z,4.51
2018-12-16T21:28:07.463Z,4.49
2018-12-16T21:30:37.636Z,4.44
2018-12-16T21:33:06.433Z,4.40
2018-12-16T21:35:35.260Z,4.36
2018-12-16T21:38:04.116Z,4.38
2018-12-16T21:40:32.934Z,4.40
2018-12-16T21:43:01.670Z,4.37
2018-12-16T21:45:31.247Z,4.33
2018-12-16T21:48:00.039Z,4.28
2018-12-16T21:50:28.819Z,4.28
2018-12-16T21:52:57.603Z,4.28
2018-12-16T21:55:26.411Z,4.28
2018-12-16T21:57:55.205Z,4.31
2018-12-16T22:00:24.060Z,4.34
2018-12-16T22:02:52.903Z,4.29
2018-12-16T22:05:25.851Z,4.25
2018-12-16T22:07:54.636Z,4.25
2018-12-16T22:10:23.447Z,4.17
2018-12-16T22:12:52.898Z,4.18
2018-12-16T22:15:21.803Z,4.16
2018-12-16T22:17:50.642Z,4.19
2018-12-16T22:20:20.011Z,4.18
2018-12-16T22:22:48.810Z,4.16
2018-12-16T22:25:17.600Z,4.13
2018-12-16T22:27:46.391Z,4.11
2018-12-16T22:30:15.922Z,4.13
2018-12-16T22:32:45.571Z,4.15
2018-12-16T22:35:14.365Z,4.12
2018-12-16T22:37:43.161Z,4.05
2018-12-16T22:40:11.948Z,4.00
2018-12-16T22:42:41.558Z,4.02
2018-12-16T22:45:10.330Z,4.06
2018-12-16T22:47:39.119Z,4.07
2018-12-16T22:50:07.927Z,4.08
2018-12-16T22:52:36.725Z,4.11
2018-12-16T22:55:06.363Z,4.15
2018-12-16T22:57:35.189Z,4.18
2018-12-16T23:00:04.059Z,4.19
2018-12-16T23:02:32.947Z,4.17
2018-12-16T23:05:01.816Z,4.19
2018-12-16T23:07:30.708Z,4.19
2018-12-16T23:09:59.498Z,4.19
2018-12-16T23:12:28.276Z,4.20
2018-12-16T23:14:57.050Z,4.16
2018-12-16T23:17:25.880Z,4.15
2018-12-16T23:20:28.627Z,4.15
2018-12-16T23:22:57.762Z,4.13
2018-12-16T23:25:26.556Z,4.13
2018-12-16T23:27:55.412Z,4.13
2018-12-16T23:30:24.268Z,4.10
2018-12-16T23:32:53.063Z,4.11
2018-12-16T23:35:21.928Z,4.11
2018-12-16T23:37:50.698Z,4.11
2018-12-16T23:40:26.148Z,4.12
2018-12-16T23:42:54.924Z,4.13
2018-12-16T23:45:23.806Z,4.12
2018-12-16T23:47:52.599Z,4.14
2018-12-16T23:50:21.393Z,4.11
2018-12-16T23:52:50.276Z,4.07
2018-12-16T23:55:19.141Z,4.10
2018-12-16T23:57:47.896Z,4.10
